Time;durP1;ratioP1;P1;durP2;ratioP2;P2;SDS_P1;SDS_P2;PMS_P1;PMS_P2;Temp;Humidity;BMP_temperature;BMP_pressure;BME280_temperature;BME280_humidity;BME280_pressure;Samples;Min_cycle;Max_cycle;Signal;HPM_P1;HPM_P2
2022/10/25 00:00:56;;;;;;;4.57;0.90;;;;;;;-145.48;100.00;64539.38;6308400;28;20040;-91
2022/10/25 00:03:58;;;;;;;0.95;0.68;;;;;;;-145.48;100.00;64539.38;6296609;28;20040;-91
2022/10/25 00:07:00;;;;;;;4.03;0.75;;;;;;;-145.48;100.00;64539.38;6306564;28;20032;-91
2022/10/25 00:10:02;;;;;;;1.85;1.05;;;;;;;-145.48;100.00;64539.38;6304099;28;20049;-93
2022/10/25 00:13:04;;;;;;;1.38;0.68;;;;;;;-145.48;100.00;64539.38;6301399;28;20032;-92
2022/10/25 00:16:17;;;;;;;1.08;0.80;;;;;;;-145.48;100.00;64539.38;6304819;28;20612;-92
2022/10/25 00:19:19;;;;;;;2.08;0.73;;;;;;;-145.48;100.00;64539.38;6302884;28;20048;-92
2022/10/25 00:22:21;;;;;;;2.95;0.85;;;;;;;-145.48;100.00;64539.38;6305570;28;20545;-92
2022/10/25 00:25:23;;;;;;;1.23;1.08;;;;;;;-145.48;100.00;64539.38;6306061;28;20043;-91
2022/10/25 00:28:25;;;;;;;3.72;0.70;;;;;;;-145.48;100.00;64539.38;6308087;28;20138;-92
2022/10/25 00:31:27;;;;;;;1.52;0.77;;;;;;;-145.48;100.00;64539.38;6312981;28;20150;-91
2022/10/25 00:34:29;;;;;;;1.45;0.82;;;;;;;-145.48;100.00;64539.38;6308128;28;20529;-92
2022/10/25 00:37:30;;;;;;;2.28;0.90;;;;;;;-145.48;100.00;64539.38;6306742;28;20043;-92
2022/10/25 00:40:33;;;;;;;2.78;0.82;;;;;;;-145.48;100.00;64539.38;6302145;28;20055;-92
2022/10/25 00:43:38;;;;;;;3.03;0.90;;;;;;;-145.48;100.00;64539.38;6307430;28;20032;-92
2022/10/25 00:46:39;;;;;;;3.58;0.82;;;;;;;-145.48;100.00;64539.38;6311091;28;20075;-92
2022/10/25 00:49:42;;;;;;;2.35;0.90;;;;;;;-145.48;100.00;64539.38;6310093;28;20562;-92
2022/10/25 00:52:49;;;;;;;5.35;1.20;;;;;;;-145.48;100.00;64539.38;6310835;28;20059;-92
2022/10/25 00:56:28;;;;;;;1.38;0.80;;;;;;;-145.48;100.00;64539.38;6310669;28;20592;-92
2022/10/25 00:59:30;;;;;;;2.88;0.95;;;;;;;-145.48;100.00;64539.38;6239760;28;20045;-93
2022/10/25 01:02:32;;;;;;;3.95;1.40;;;;;;;-145.48;100.00;64539.38;6202643;28;20431;-93
2022/10/25 01:05:36;;;;;;;2.15;1.10;;;;;;;-145.48;100.00;64539.38;6229177;28;20117;-93
2022/10/25 01:08:41;;;;;;;4.53;1.02;;;;;;;-145.48;100.00;64539.38;6224847;28;20076;-93
2022/10/25 01:11:42;;;;;;;2.58;1.27;;;;;;;-145.48;100.00;64539.38;6234747;28;20096;-93
2022/10/25 01:14:48;;;;;;;2.00;1.20;;;;;;;-145.48;100.00;64539.38;6216315;28;20400;-92
2022/10/25 01:18:00;;;;;;;2.78;1.20;;;;;;;-145.48;100.00;64539.38;6209312;28;20041;-93
2022/10/25 01:21:30;;;;;;;4.82;1.30;;;;;;;-145.48;100.00;64539.38;6234124;28;20056;-92
2022/10/25 01:24:53;;;;;;;4.82;1.30;;;;;;;-145.48;100.00;64539.38;6217488;28;20053;-92
2022/10/25 01:28:10;;;;;;;5.40;1.25;;;;;;;-145.48;100.00;64539.38;6225837;28;20054;-91
2022/10/25 01:31:29;;;;;;;7.57;1.65;;;;;;;-145.48;100.00;64539.38;6225289;28;20497;-92
2022/10/25 01:34:39;;;;;;;4.13;1.60;;;;;;;-145.48;100.00;64539.38;6292737;28;20044;-92
2022/10/25 01:37:59;;;;;;;3.42;1.50;;;;;;;-145.48;100.00;64539.38;6311568;28;20507;-92
2022/10/25 01:41:10;;;;;;;2.90;1.50;;;;;;;-145.48;100.00;64539.38;6309532;28;20040;-92
2022/10/25 01:44:40;;;;;;;3.85;1.35;;;;;;;-145.48;100.00;64539.38;6293559;28;20075;-92
2022/10/25 01:47:47;;;;;;;3.97;1.40;;;;;;;-145.48;100.00;64539.38;6311440;28;20036;-92
2022/10/25 01:50:50;;;;;;;2.78;1.50;;;;;;;-145.48;100.00;64539.38;6311621;28;20043;-92
2022/10/25 01:53:51;;;;;;;4.40;1.70;;;;;;;-145.48;100.00;64539.38;6318029;28;20044;-91
2022/10/25 01:57:18;;;;;;;8.82;1.48;;;;;;;-145.48;100.00;64539.38;6311923;28;20119;-92
2022/10/25 02:00:22;;;;;;;4.50;1.80;;;;;;;-145.48;100.00;64539.38;6305401;28;20055;-92
2022/10/25 02:03:38;;;;;;;3.28;1.83;;;;;;;-145.48;100.00;64539.38;6309148;28;20081;-90
2022/10/25 02:06:42;;;;;;;4.75;2.10;;;;;;;-145.48;100.00;64539.38;6311997;28;20535;-89
2022/10/25 02:10:02;;;;;;;3.50;2.00;;;;;;;-145.48;100.00;64539.38;6309888;28;20504;-89
2022/10/25 02:13:26;;;;;;;4.38;1.77;;;;;;;-145.48;100.00;64539.38;6310385;28;20911;-89
2022/10/25 02:16:49;;;;;;;6.85;1.92;;;;;;;-145.48;100.00;64539.38;6308367;28;20048;-88
2022/10/25 02:19:58;;;;;;;3.22;1.90;;;;;;;-145.48;100.00;64539.38;6290282;28;20059;-88
2022/10/25 02:23:03;;;;;;;4.85;1.77;;;;;;;-145.48;100.00;64539.38;6312052;28;20050;-89
2022/10/25 02:26:07;;;;;;;4.72;2.30;;;;;;;-145.48;100.00;64539.38;6301963;28;20047;-89
2022/10/25 02:29:10;;;;;;;9.20;2.30;;;;;;;-145.48;100.00;64539.38;6300998;28;20036;-89
2022/10/25 02:32:12;;;;;;;4.68;2.35;;;;;;;-145.48;100.00;64539.38;6301564;28;20036;-89
2022/10/25 02:35:17;;;;;;;4.30;2.60;;;;;;;-145.48;100.00;64539.38;6310357;28;20044;-89
2022/10/25 02:38:19;;;;;;;6.55;3.58;;;;;;;-145.48;100.00;64539.38;6308573;28;20082;-89
2022/10/25 02:41:22;;;;;;;4.07;3.20;;;;;;;-145.48;100.00;64539.38;6304471;28;20048;-89
2022/10/25 02:44:24;;;;;;;6.93;3.03;;;;;;;-145.48;100.00;64539.38;6297922;28;20048;-89
2022/10/25 02:47:26;;;;;;;7.55;3.45;;;;;;;-145.48;100.00;64539.38;6308443;28;20399;-89
2022/10/25 02:50:28;;;;;;;7.00;3.72;;;;;;;-145.48;100.00;64539.38;6309084;28;20044;-89
2022/10/25 02:53:31;;;;;;;4.53;3.83;;;;;;;-145.48;100.00;64539.38;6290156;28;20048;-90
2022/10/25 02:56:32;;;;;;;6.05;4.25;;;;;;;-145.48;100.00;64539.38;6308080;28;20032;-89
2022/10/25 02:59:34;;;;;;;5.70;3.90;;;;;;;-145.48;100.00;64539.38;6308497;28;20078;-89
2022/10/25 03:02:36;;;;;;;7.38;4.30;;;;;;;-145.48;100.00;64539.38;6311343;28;20047;-89
2022/10/25 03:05:37;;;;;;;9.07;4.68;;;;;;;-145.48;100.00;64539.38;6303831;28;20175;-90
2022/10/25 03:08:41;;;;;;;10.27;5.00;;;;;;;-145.48;100.00;64539.38;6312074;28;20036;-89
2022/10/25 03:11:42;;;;;;;9.20;4.97;;;;;;;-145.48;100.00;64539.38;6310798;28;20370;-89
2022/10/25 03:14:44;;;;;;;9.15;4.85;;;;;;;-145.48;100.00;64539.38;6301220;28;20052;-89
2022/10/25 03:17:45;;;;;;;8.70;4.68;;;;;;;-145.48;100.00;64539.38;6312362;28;20048;-89
2022/10/25 03:20:48;;;;;;;7.93;4.75;;;;;;;-145.48;100.00;64539.38;6311595;28;20420;-89
2022/10/25 03:23:51;;;;;;;8.52;4.75;;;;;;;-145.48;100.00;64539.38;6312042;28;20040;-89
2022/10/25 03:26:53;;;;;;;8.25;4.10;;;;;;;-145.48;100.00;64539.38;6308698;28;20028;-90
2022/10/25 03:29:55;;;;;;;5.57;3.67;;;;;;;-145.48;100.00;64539.38;6296117;28;20386;-89
2022/10/25 03:32:57;;;;;;;5.68;3.80;;;;;;;-145.48;100.00;64539.38;6311196;28;20036;-90
2022/10/25 03:35:59;;;;;;;6.72;4.13;;;;;;;-145.48;100.00;64539.38;6310008;28;20040;-90
2022/10/25 03:39:00;;;;;;;8.63;4.78;;;;;;;-145.48;100.00;64539.38;6308818;28;20044;-90
2022/10/25 03:42:02;;;;;;;7.47;5.53;;;;;;;-145.48;100.00;64539.38;6293623;28;20051;-89
2022/10/25 03:45:05;;;;;;;10.90;5.68;;;;;;;-145.48;100.00;64539.38;6311349;28;20038;-90
2022/10/25 03:48:07;;;;;;;10.52;5.90;;;;;;;-145.48;100.00;64539.38;6311590;28;20062;-90
2022/10/25 03:51:08;;;;;;;13.18;6.35;;;;;;;-145.48;100.00;64539.38;6311875;28;20044;-90
2022/10/25 03:54:10;;;;;;;11.40;6.15;;;;;;;-145.48;100.00;64539.38;6312357;28;20074;-90
2022/10/25 03:57:12;;;;;;;11.77;6.45;;;;;;;-145.48;100.00;64539.38;6309795;28;20169;-90
2022/10/25 04:00:14;;;;;;;8.45;6.00;;;;;;;-145.48;100.00;64539.38;6312157;28;20051;-90
2022/10/25 04:03:16;;;;;;;8.45;5.78;;;;;;;-145.48;100.00;64539.38;6302706;28;20044;-90
2022/10/25 04:06:18;;;;;;;13.50;6.25;;;;;;;-145.48;100.00;64539.38;6312202;28;20044;-91
2022/10/25 04:09:20;;;;;;;17.10;6.70;;;;;;;-145.48;100.00;64539.38;6314416;28;20044;-90
2022/10/25 04:12:21;;;;;;;11.18;5.68;;;;;;;-145.48;100.00;64539.38;6316491;28;20485;-90
2022/10/25 04:15:23;;;;;;;9.80;5.60;;;;;;;-145.48;100.00;64539.38;6315486;28;20078;-89
2022/10/25 04:18:25;;;;;;;7.57;5.07;;;;;;;-145.48;100.00;64539.38;6298229;28;20063;-90
2022/10/25 04:21:27;;;;;;;9.23;5.50;;;;;;;-145.48;100.00;64539.38;6311785;28;20469;-90
2022/10/25 04:24:29;;;;;;;7.22;5.13;;;;;;;-145.48;100.00;64539.38;6309363;28;20502;-90
2022/10/25 04:27:31;;;;;;;7.53;5.00;;;;;;;-145.48;100.00;64539.38;6307175;28;20039;-90
2022/10/25 04:30:33;;;;;;;9.65;4.80;;;;;;;-145.48;100.00;64539.38;6315219;28;20073;-91
2022/10/25 04:33:39;;;;;;;9.25;4.97;;;;;;;-145.48;100.00;64539.38;6315171;28;20581;-90
2022/10/25 04:36:44;;;;;;;8.43;5.25;;;;;;;-145.48;100.00;64539.38;6313261;28;20193;-91
2022/10/25 04:39:46;;;;;;;6.40;5.00;;;;;;;-145.48;100.00;64539.38;6310981;28;20105;-91
2022/10/25 04:42:48;;;;;;;8.35;4.18;;;;;;;-145.48;100.00;64539.38;6313347;28;20036;-91
2022/10/25 04:45:51;;;;;;;6.03;4.45;;;;;;;-145.48;100.00;64539.38;6311879;28;20036;-90
2022/10/25 04:48:53;;;;;;;9.32;4.80;;;;;;;-145.48;100.00;64539.38;6314587;28;20113;-91
2022/10/25 04:51:56;;;;;;;9.25;4.75;;;;;;;-145.48;100.00;64539.38;6294499;28;20181;-90
2022/10/25 04:54:58;;;;;;;8.05;4.28;;;;;;;-145.48;100.00;64539.38;6311908;28;20047;-90
2022/10/25 04:58:00;;;;;;;7.20;4.47;;;;;;;-145.48;100.00;64539.38;6312950;28;20040;-90
2022/10/25 05:01:05;;;;;;;8.07;4.65;;;;;;;-145.48;100.00;64539.38;6296501;28;20052;-90
2022/10/25 05:04:07;;;;;;;11.30;4.80;;;;;;;-145.48;100.00;64539.38;6315148;28;20487;-90
2022/10/25 05:07:09;;;;;;;8.93;5.15;;;;;;;-145.48;100.00;64539.38;6328335;28;20522;-90
2022/10/25 05:10:11;;;;;;;7.45;5.13;;;;;;;-145.48;100.00;64539.38;6314336;28;20432;-90
2022/10/25 05:13:12;;;;;;;13.07;5.47;;;;;;;-145.48;100.00;64539.38;6315262;28;20523;-90
2022/10/25 05:16:21;;;;;;;9.25;5.25;;;;;;;-145.48;100.00;64539.38;6307968;28;20504;-91
2022/10/25 05:19:22;;;;;;;6.45;4.85;;;;;;;-145.48;100.00;64539.38;6314312;28;20051;-92
2022/10/25 05:22:24;;;;;;;7.72;5.25;;;;;;;-145.48;100.00;64539.38;6308717;28;20075;-92
2022/10/25 05:25:26;;;;;;;9.48;5.10;;;;;;;-145.48;100.00;64539.38;6310553;28;20449;-92
2022/10/25 05:28:28;;;;;;;8.93;5.25;;;;;;;-145.48;100.00;64539.38;6291938;28;20044;-91
2022/10/25 05:31:30;;;;;;;6.60;5.45;;;;;;;-145.48;100.00;64539.38;6314712;28;20040;-92
2022/10/25 05:34:32;;;;;;;8.45;5.63;;;;;;;-145.48;100.00;64539.38;6312227;28;20047;-92
2022/10/25 05:37:34;;;;;;;8.73;5.43;;;;;;;-145.48;100.00;64539.38;6315656;28;20040;-92
2022/10/25 05:40:36;;;;;;;7.45;5.07;;;;;;;-145.48;100.00;64539.38;6313809;28;20043;-92
2022/10/25 05:43:39;;;;;;;7.10;4.82;;;;;;;-145.48;100.00;64539.38;6314928;28;20100;-91
2022/10/25 05:46:42;;;;;;;8.63;4.78;;;;;;;-145.48;100.00;64539.38;6309345;28;20078;-92
2022/10/25 05:49:44;;;;;;;9.80;5.30;;;;;;;-145.48;100.00;64539.38;6314382;28;20486;-91
2022/10/25 05:52:46;;;;;;;7.95;5.32;;;;;;;-145.48;100.00;64539.38;6305141;28;20048;-92
2022/10/25 05:55:48;;;;;;;7.75;4.65;;;;;;;-145.48;100.00;64539.38;6312761;28;20031;-92
2022/10/25 05:58:51;;;;;;;9.02;4.50;;;;;;;-145.48;100.00;64539.38;6314006;28;20525;-92
2022/10/25 06:01:52;;;;;;;6.32;4.47;;;;;;;-145.48;100.00;64539.38;6304412;28;20041;-92
2022/10/25 06:04:54;;;;;;;7.15;4.38;;;;;;;-145.48;100.00;64539.38;6308980;28;20028;-92
2022/10/25 06:07:56;;;;;;;10.98;4.72;;;;;;;-145.48;100.00;64539.38;6312473;28;20032;-92
2022/10/25 06:11:04;;;;;;;6.45;4.47;;;;;;;-145.48;100.00;64539.38;6311114;28;20335;-92
2022/10/25 06:14:07;;;;;;;7.00;4.43;;;;;;;-145.48;100.00;64539.38;6311005;28;20510;-91
2022/10/25 06:17:11;;;;;;;7.70;4.45;;;;;;;-145.48;100.00;64539.38;6310825;28;20181;-91
2022/10/25 06:20:13;;;;;;;10.02;4.50;;;;;;;-145.48;100.00;64539.38;6313493;28;20075;-91
2022/10/25 06:23:15;;;;;;;9.77;5.05;;;;;;;-145.48;100.00;64539.38;6313751;28;20050;-92
2022/10/25 06:26:25;;;;;;;6.20;4.13;;;;;;;-145.48;100.00;64539.38;6312150;28;20040;-92
2022/10/25 06:29:27;;;;;;;8.52;5.30;;;;;;;-145.48;100.00;64539.38;6313359;28;20038;-92
2022/10/25 06:32:29;;;;;;;12.65;5.72;;;;;;;-145.48;100.00;64539.38;6312631;28;20040;-92
2022/10/25 06:35:32;;;;;;;6.05;4.70;;;;;;;-145.48;100.00;64539.38;6312141;28;20517;-91
2022/10/25 06:38:33;;;;;;;10.52;5.00;;;;;;;-145.48;100.00;64539.38;6311700;28;20130;-92
2022/10/25 06:41:35;;;;;;;9.15;5.10;;;;;;;-145.48;100.00;64539.38;6310592;28;20051;-92
2022/10/25 06:44:38;;;;;;;9.90;4.80;;;;;;;-145.48;100.00;64539.38;6304799;28;20047;-91
2022/10/25 06:47:44;;;;;;;7.57;5.10;;;;;;;-145.48;100.00;64539.38;6311840;28;20551;-91
2022/10/25 06:50:47;;;;;;;11.23;5.10;;;;;;;-145.48;100.00;64539.38;6309185;28;20036;-92
2022/10/25 06:54:08;;;;;;;10.65;4.45;;;;;;;-145.48;100.00;64539.38;6308864;28;20032;-92
2022/10/25 06:57:10;;;;;;;11.75;4.82;;;;;;;-145.48;100.00;64539.38;6307614;28;20046;-92
2022/10/25 07:00:12;;;;;;;10.30;5.00;;;;;;;-145.48;100.00;64539.38;6312714;28;20093;-92
2022/10/25 07:03:14;;;;;;;9.50;5.05;;;;;;;-145.48;100.00;64539.38;6300157;28;20036;-93
2022/10/25 07:06:20;;;;;;;8.70;4.90;;;;;;;-145.48;100.00;64539.38;6311650;28;20047;-92
2022/10/25 07:09:22;;;;;;;8.68;4.60;;;;;;;-145.48;100.00;64539.38;6311006;28;20127;-92
2022/10/25 07:12:24;;;;;;;6.82;4.50;;;;;;;-145.48;100.00;64539.38;6311114;28;20056;-92
2022/10/25 07:15:25;;;;;;;10.85;4.85;;;;;;;-145.48;100.00;64539.38;6305780;28;20048;-93
2022/10/25 07:18:29;;;;;;;13.18;4.97;;;;;;;-145.48;100.00;64539.38;6310933;28;20043;-92
2022/10/25 07:21:32;;;;;;;7.68;4.57;;;;;;;-145.48;100.00;64539.38;6311197;28;20044;-92
2022/10/25 07:24:34;;;;;;;8.57;4.47;;;;;;;-145.48;100.00;64539.38;6290542;28;20036;-93
2022/10/25 07:27:36;;;;;;;7.47;4.50;;;;;;;-145.48;100.00;64539.38;6305428;28;20063;-92
2022/10/25 07:30:44;;;;;;;7.07;4.30;;;;;;;-145.48;100.00;64539.38;6310479;28;20388;-93
2022/10/25 07:33:47;;;;;;;9.75;4.65;;;;;;;-145.48;100.00;64539.38;6312487;28;20042;-94
2022/10/25 07:36:49;;;;;;;6.43;4.15;;;;;;;-145.48;100.00;64539.38;6304393;28;20065;-94
2022/10/25 07:39:51;;;;;;;7.78;4.55;;;;;;;-145.48;100.00;64539.38;6311658;28;20040;-94
2022/10/25 07:42:53;;;;;;;11.20;4.80;;;;;;;-145.48;100.00;64539.38;6311878;28;20039;-94
2022/10/25 07:45:55;;;;;;;6.65;4.57;;;;;;;-145.48;100.00;64539.38;6312490;28;20067;-95
2022/10/25 07:48:57;;;;;;;9.07;4.65;;;;;;;-145.48;100.00;64539.38;6308610;28;20047;-94
2022/10/25 07:51:59;;;;;;;8.13;4.70;;;;;;;-145.48;100.00;64539.38;6308910;28;20040;-94
2022/10/25 07:55:00;;;;;;;10.43;4.82;;;;;;;-145.48;100.00;64539.38;6307179;28;20546;-94
2022/10/25 07:58:04;;;;;;;7.25;4.38;;;;;;;-145.48;100.00;64539.38;6308507;28;20044;-94
2022/10/25 08:01:09;;;;;;;8.32;5.40;;;;;;;-145.48;100.00;64539.38;6307685;28;20048;-94
2022/10/25 08:04:11;;;;;;;9.85;4.57;;;;;;;-145.48;100.00;64539.38;6308842;28;20085;-93
2022/10/25 08:07:13;;;;;;;7.55;4.38;;;;;;;-145.48;100.00;64539.38;6305766;28;20044;-93
2022/10/25 08:10:19;;;;;;;9.57;4.43;;;;;;;-145.48;100.00;64539.38;6310426;28;20059;-93
2022/10/25 08:13:21;;;;;;;7.03;4.15;;;;;;;-145.48;100.00;64539.38;6309480;28;20115;-93
2022/10/25 08:16:23;;;;;;;8.48;5.15;;;;;;;-145.48;100.00;64539.38;6310593;28;20036;-93
2022/10/25 08:19:25;;;;;;;10.95;4.93;;;;;;;-145.48;100.00;64539.38;6310905;28;20150;-93
2022/10/25 08:22:27;;;;;;;6.88;4.28;;;;;;;-145.48;100.00;64539.38;6310329;28;20047;-93
2022/10/25 08:25:29;;;;;;;6.13;3.80;;;;;;;-145.48;100.00;64539.38;6298846;28;20047;-93
2022/10/25 08:28:31;;;;;;;8.00;4.10;;;;;;;-145.48;100.00;64539.38;6310183;28;20117;-93
2022/10/25 08:31:33;;;;;;;6.75;4.30;;;;;;;-145.48;100.00;64539.38;6303683;28;20044;-93
2022/10/25 08:34:35;;;;;;;6.78;3.53;;;;;;;-145.48;100.00;64539.38;6302346;28;20217;-93
2022/10/25 08:37:38;;;;;;;6.63;3.75;;;;;;;-145.48;100.00;64539.38;6309007;28;20060;-95
2022/10/25 08:40:44;;;;;;;5.50;3.67;;;;;;;-145.48;100.00;64539.38;6308333;28;20746;-94
2022/10/25 08:44:24;;;;;;;12.07;3.67;;;;;;;-145.48;100.00;64539.38;6301655;28;20626;-94
2022/10/25 08:47:35;;;;;;;5.33;3.50;;;;;;;-145.48;100.00;64539.38;6307542;28;20048;-94
2022/10/25 08:50:44;;;;;;;7.53;3.90;;;;;;;-145.48;100.00;64539.38;6313349;28;20043;-93
2022/10/25 08:53:51;;;;;;;6.45;4.05;;;;;;;-145.48;100.00;64539.38;6313091;28;20127;-94
2022/10/25 08:57:23;;;;;;;8.98;4.00;;;;;;;-145.48;100.00;64539.38;6314107;28;20502;-95
2022/10/25 09:00:31;;;;;;;7.75;4.20;;;;;;;-145.48;100.00;64539.38;6259927;28;20103;-94
2022/10/25 09:03:33;;;;;;;6.18;3.70;;;;;;;-145.48;100.00;64539.38;6244895;28;20040;-95
2022/10/25 09:06:50;;;;;;;5.97;3.63;;;;;;;-145.48;100.00;64539.38;6261165;28;20048;-94
2022/10/25 09:10:02;;;;;;;7.57;4.10;;;;;;;-145.48;100.00;64539.38;6238991;28;20498;-94
2022/10/25 09:13:38;;;;;;;8.00;3.75;;;;;;;-145.48;100.00;64539.38;6262159;28;20037;-93
2022/10/25 09:17:03;;;;;;;7.07;3.63;;;;;;;-145.48;100.00;64539.38;6238337;28;20053;-95
2022/10/25 09:20:15;;;;;;;7.22;4.00;;;;;;;-145.48;100.00;64539.38;6232522;28;20052;-93
2022/10/25 09:23:30;;;;;;;6.80;3.70;;;;;;;-145.48;100.00;64539.38;6254074;28;20068;-94
2022/10/25 09:26:47;;;;;;;5.63;3.17;;;;;;;-145.48;100.00;64539.38;6253781;28;20047;-94
2022/10/25 09:30:00;;;;;;;4.93;3.05;;;;;;;-145.48;100.00;64539.38;6252841;28;20077;-95
2022/10/25 09:33:19;;;;;;;4.47;3.15;;;;;;;-145.48;100.00;64539.38;6258577;28;20411;-95
2022/10/25 09:36:22;;;;;;;3.45;2.42;;;;;;;-145.48;100.00;64539.38;6252185;28;20177;-95
2022/10/25 09:39:32;;;;;;;8.07;3.17;;;;;;;-145.48;100.00;64539.38;6309566;28;20036;-95
2022/10/25 09:42:48;;;;;;;6.43;2.92;;;;;;;-145.48;100.00;64539.38;6303335;28;20047;-94
2022/10/25 09:45:55;;;;;;;4.28;2.60;;;;;;;-145.48;100.00;64539.38;6311950;28;20075;-95
2022/10/25 09:49:25;;;;;;;6.82;2.92;;;;;;;-145.48;100.00;64539.38;6302599;28;20149;-94
2022/10/25 09:52:39;;;;;;;5.20;2.92;;;;;;;-145.48;100.00;64539.38;6303247;28;20044;-93
2022/10/25 09:55:50;;;;;;;3.35;2.55;;;;;;;-145.48;100.00;64539.38;6292328;28;20093;-94
2022/10/25 09:58:52;;;;;;;5.13;2.60;;;;;;;-145.48;100.00;64539.38;6292164;28;20060;-95
2022/10/25 10:01:54;;;;;;;6.75;2.50;;;;;;;-145.48;100.00;64539.38;6312964;28;20051;-94
2022/10/25 10:04:56;;;;;;;6.72;2.50;;;;;;;-145.48;100.00;64539.38;6314069;28;20402;-93
2022/10/25 10:07:59;;;;;;;5.15;2.50;;;;;;;-145.48;100.00;64539.38;6290173;28;20481;-94
2022/10/25 10:11:03;;;;;;;4.78;2.33;;;;;;;-145.48;100.00;64539.38;6313029;28;20417;-94
2022/10/25 10:14:34;;;;;;;6.53;2.38;;;;;;;-145.48;100.00;64539.38;6312644;28;20071;-93
2022/10/25 10:17:36;;;;;;;6.90;2.70;;;;;;;-145.48;100.00;64539.38;6306851;28;20494;-94
2022/10/25 10:20:38;;;;;;;5.93;2.65;;;;;;;-145.48;100.00;64539.38;6307558;28;20478;-93
2022/10/25 10:23:52;;;;;;;3.95;2.53;;;;;;;-145.48;100.00;64539.38;6304653;28;20062;-94
2022/10/25 10:26:59;;;;;;;5.18;2.55;;;;;;;-145.48;100.00;64539.38;6302243;28;20039;-93
2022/10/25 10:30:06;;;;;;;8.98;2.55;;;;;;;-145.48;100.00;64539.38;6312602;28;20448;-94
2022/10/25 10:33:16;;;;;;;8.40;3.13;;;;;;;-145.48;100.00;64539.38;6326326;28;20450;-94
2022/10/25 10:36:32;;;;;;;6.03;2.67;;;;;;;-145.48;100.00;64539.38;6303055;28;20040;-94
2022/10/25 10:39:34;;;;;;;8.20;2.60;;;;;;;-145.48;100.00;64539.38;6306790;28;20151;-94
2022/10/25 10:42:41;;;;;;;4.15;2.42;;;;;;;-145.48;100.00;64539.38;6309580;28;20497;-93
2022/10/25 10:45:50;;;;;;;4.35;2.75;;;;;;;-145.48;100.00;64539.38;6312893;28;20486;-94
2022/10/25 10:48:56;;;;;;;6.53;2.63;;;;;;;-145.48;100.00;64539.38;6312439;28;20466;-94
2022/10/25 10:51:58;;;;;;;5.68;2.92;;;;;;;-145.48;100.00;64539.38;6308032;28;20036;-92
2022/10/25 10:55:02;;;;;;;6.05;2.33;;;;;;;-145.48;100.00;64539.38;6292459;28;20744;-93
2022/10/25 10:58:13;;;;;;;7.72;2.90;;;;;;;-145.48;100.00;64539.38;6308785;28;20480;-92
2022/10/25 11:01:26;;;;;;;;;;;;;;;-145.48;100.00;64539.38;6309572;28;20047;-93
2022/10/25 11:04:28;;;;;;;3.97;2.42;;;;;;;-145.48;100.00;64539.38;6307838;28;19931;-93
2022/10/25 11:07:33;;;;;;;4.22;2.38;;;;;;;-145.48;100.00;64539.38;6310458;28;20536;-94
2022/10/25 11:10:36;;;;;;;7.28;2.40;;;;;;;-145.48;100.00;64539.38;6309933;28;20044;-93
2022/10/25 11:13:38;;;;;;;4.85;2.42;;;;;;;-145.48;100.00;64539.38;6306117;28;20529;-94
2022/10/25 11:16:46;;;;;;;3.03;2.22;;;;;;;-145.48;100.00;64539.38;6310443;28;20058;-93
2022/10/25 11:20:06;;;;;;;3.25;2.72;;;;;;;-145.48;100.00;64539.38;6311546;28;20519;-93
2022/10/25 11:23:35;;;;;;;5.25;2.40;;;;;;;-145.48;100.00;64539.38;6301020;28;20036;-94
2022/10/25 11:26:59;;;;;;;4.60;2.30;;;;;;;-145.48;100.00;64539.38;6309444;28;20377;-93
2022/10/25 11:30:14;;;;;;;4.95;2.90;;;;;;;-145.48;100.00;64539.38;6308775;28;20161;-93
2022/10/25 11:33:36;;;;;;;3.70;2.60;;;;;;;-145.48;100.00;64539.38;6312426;28;20036;-93
2022/10/25 11:36:57;;;;;;;4.95;3.00;;;;;;;-145.48;100.00;64539.38;6311854;28;20040;-94
2022/10/25 11:39:59;;;;;;;;;;;;;;;-145.48;100.00;64539.38;6314846;28;20047;-94
2022/10/25 11:43:28;;;;;;;6.50;3.53;;;;;;;-145.48;100.00;64539.38;6312124;28;19930;-94
2022/10/25 11:47:07;;;;;;;3.08;2.78;;;;;;;-145.48;100.00;64539.38;6308961;28;20508;-94
2022/10/25 11:50:40;;;;;;;5.97;2.70;;;;;;;-145.48;100.00;64539.38;6299717;28;20046;-93
2022/10/25 11:54:33;;;;;;;4.43;2.40;;;;;;;-145.48;100.00;64539.38;6309694;28;20143;-93
2022/10/25 11:58:20;;;;;;;5.07;2.50;;;;;;;-145.48;100.00;64539.38;6212849;28;20042;-92
2022/10/25 12:01:34;;;;;;;3.92;2.22;;;;;;;-145.48;100.00;64539.38;6233564;28;20105;-94
2022/10/25 12:04:55;;;;;;;2.58;2.03;;;;;;;-145.48;100.00;64539.38;6233036;28;20117;-95
2022/10/25 12:08:22;;;;;;;5.10;2.17;;;;;;;-145.48;100.00;64539.38;6216778;28;20084;-94
2022/10/25 12:11:30;;;;;;;3.60;2.08;;;;;;;-145.48;100.00;64539.38;6231790;28;20050;-94
2022/10/25 12:14:44;;;;;;;3.78;2.10;;;;;;;-145.48;100.00;64539.38;6212611;28;20162;-94
2022/10/25 12:17:46;;;;;;;2.38;1.80;;;;;;;-145.48;100.00;64539.38;6217628;28;20503;-93
2022/10/25 12:20:49;;;;;;;5.03;2.33;;;;;;;-145.48;100.00;64539.38;6215587;28;20166;-94
2022/10/25 12:23:53;;;;;;;3.33;1.90;;;;;;;-145.48;100.00;64539.38;6230185;28;20080;-92
2022/10/25 12:26:56;;;;;;;4.47;2.08;;;;;;;-145.48;100.00;64539.38;6236707;28;20497;-92
2022/10/25 12:30:05;;;;;;;7.40;2.50;;;;;;;-145.48;100.00;64539.38;6219010;28;20119;-93
2022/10/25 12:33:33;;;;;;;6.50;2.50;;;;;;;-145.48;100.00;64539.38;6283382;28;20052;-92
2022/10/25 12:37:03;;;;;;;2.78;2.05;;;;;;;-145.48;100.00;64539.38;6297903;28;20297;-92
2022/10/25 12:40:13;;;;;;;4.83;1.90;;;;;;;-145.48;100.00;64539.38;6311581;28;20486;-92
2022/10/25 12:43:32;;;;;;;4.25;1.92;;;;;;;-145.48;100.00;64539.38;6315302;28;20090;-91
2022/10/25 12:47:11;;;;;;;2.55;2.05;;;;;;;-145.48;100.00;64539.38;6314223;28;20090;-91
2022/10/25 12:50:51;;;;;;;3.85;2.38;;;;;;;-145.48;100.00;64539.38;6314029;28;20052;-92
2022/10/25 12:54:48;;;;;;;3.00;2.28;;;;;;;-145.48;100.00;64539.38;6310616;28;20483;-92
2022/10/25 12:58:14;;;;;;;2.70;1.98;;;;;;;-145.48;100.00;64539.38;6218635;28;20044;-92
2022/10/25 13:01:25;;;;;;;3.38;2.00;;;;;;;-145.48;100.00;64539.38;6234599;28;20041;-92
2022/10/25 13:05:21;;;;;;;4.05;2.28;;;;;;;-145.48;100.00;64539.38;6233551;28;20061;-94
2022/10/25 13:08:26;;;;;;;5.35;2.78;;;;;;;-145.48;100.00;64539.38;6186935;28;20363;-93
2022/10/25 13:11:41;;;;;;;4.53;1.92;;;;;;;-145.48;100.00;64539.38;6187209;28;20542;-92
2022/10/25 13:14:57;;;;;;;5.97;1.77;;;;;;;-145.48;100.00;64539.38;6187634;28;20405;-92
2022/10/25 13:18:30;;;;;;;3.08;1.67;;;;;;;-145.48;100.00;64539.38;6185746;28;20050;-93
2022/10/25 13:21:57;;;;;;;7.60;1.85;;;;;;;-145.48;100.00;64539.38;6185277;28;20054;-91
2022/10/25 13:25:12;;;;;;;3.97;1.63;;;;;;;-145.48;100.00;64539.38;6185809;28;20828;-92
2022/10/25 13:28:14;;;;;;;3.13;1.90;;;;;;;-145.48;100.00;64539.38;6185863;28;20049;-93
2022/10/25 13:31:34;;;;;;;4.07;1.75;;;;;;;-145.48;100.00;64539.38;6230942;28;20270;-93
2022/10/25 13:34:37;;;;;;;5.75;2.50;;;;;;;-145.48;100.00;64539.38;6265749;28;20044;-92
2022/10/25 13:37:42;;;;;;;5.03;1.83;;;;;;;-145.48;100.00;64539.38;6282736;28;20139;-92
2022/10/25 13:41:11;;;;;;;3.38;1.75;;;;;;;-145.48;100.00;64539.38;6283986;28;20044;-91
2022/10/25 13:44:26;;;;;;;4.20;1.77;;;;;;;-145.48;100.00;64539.38;6290823;28;20064;-91
2022/10/25 13:47:39;;;;;;;5.05;1.85;;;;;;;-145.48;100.00;64539.38;6289373;28;20410;-91
2022/10/25 13:50:52;;;;;;;4.13;1.77;;;;;;;-145.48;100.00;64539.38;6312743;28;20036;-92
2022/10/25 13:53:59;;;;;;;4.95;1.83;;;;;;;-145.48;100.00;64539.38;6310093;28;20036;-93
2022/10/25 13:57:01;;;;;;;2.85;2.00;;;;;;;-145.48;100.00;64539.38;6311926;28;20059;-93
2022/10/25 14:00:29;;;;;;;5.78;2.15;;;;;;;-145.48;100.00;64539.38;6317847;28;20602;-92
2022/10/25 14:03:44;;;;;;;3.75;1.85;;;;;;;-145.48;100.00;64539.38;6307832;28;20047;-92
2022/10/25 14:06:45;;;;;;;4.45;2.10;;;;;;;-145.48;100.00;64539.38;6311060;28;20497;-92
2022/10/25 14:09:53;;;;;;;7.80;2.30;;;;;;;-145.48;100.00;64539.38;6293140;28;20051;-92
2022/10/25 14:13:05;;;;;;;4.18;2.05;;;;;;;-145.48;100.00;64539.38;6309466;28;20303;-92
2022/10/25 14:16:19;;;;;;;4.82;2.05;;;;;;;-145.48;100.00;64539.38;6310750;28;20545;-91